createdAt,value
2022-11-13T00:00:32.755Z,49.97
2022-11-13T00:02:59.936Z,50.21
2022-11-13T00:05:27.075Z,49.95
2022-11-13T00:07:54.133Z,49.87
2022-11-13T00:10:21.193Z,49.95
2022-11-13T00:12:48.266Z,50.14
2022-11-13T00:15:15.370Z,50.04
2022-11-13T00:17:42.444Z,50.00
2022-11-13T00:20:09.497Z,49.98
2022-11-13T00:22:36.569Z,49.92
2022-11-13T00:25:03.635Z,49.75
2022-11-13T00:27:31.106Z,49.68
2022-11-13T00:29:58.166Z,50.15
2022-11-13T00:32:26.587Z,50.04
2022-11-13T00:34:53.671Z,50.01
2022-11-13T00:37:20.733Z,49.88
2022-11-13T00:39:47.788Z,49.76
2022-11-13T00:42:14.979Z,49.76
2022-11-13T00:44:42.178Z,49.65
2022-11-13T00:47:09.282Z,49.95
2022-11-13T00:49:36.394Z,49.96
2022-11-13T00:52:03.629Z,49.91
2022-11-13T00:54:30.688Z,49.90
2022-11-13T00:56:57.780Z,49.64
2022-11-13T00:59:24.847Z,49.90
2022-11-13T01:01:51.986Z,49.71
2022-11-13T01:04:19.134Z,49.90
2022-11-13T01:06:46.419Z,49.86
2022-11-13T01:09:13.639Z,49.71
2022-11-13T01:11:40.744Z,49.80
2022-11-13T01:14:07.834Z,49.87
2022-11-13T01:16:34.949Z,49.82
2022-11-13T01:19:02.031Z,49.82
2022-11-13T01:21:29.180Z,49.74
2022-11-13T01:23:56.357Z,49.96
2022-11-13T01:26:23.458Z,49.49
2022-11-13T01:28:50.530Z,49.68
2022-11-13T01:31:17.654Z,49.78
2022-11-13T01:33:44.718Z,49.53
2022-11-13T01:36:11.822Z,49.64
2022-11-13T01:38:39.105Z,49.54
2022-11-13T01:41:06.313Z,49.70
2022-11-13T01:43:33.380Z,49.74
2022-11-13T01:46:00.441Z,49.58
2022-11-13T01:48:27.857Z,49.63
2022-11-13T01:50:55.149Z,49.57
2022-11-13T01:53:22.212Z,49.46
2022-11-13T01:55:49.260Z,49.46
2022-11-13T01:58:16.327Z,49.48
2022-11-13T02:00:43.389Z,49.58
2022-11-13T02:03:10.765Z,49.61
2022-11-13T02:05:37.825Z,49.30
2022-11-13T02:08:04.884Z,49.27
2022-11-13T02:10:31.957Z,49.43
2022-11-13T02:12:59.035Z,49.19
2022-11-13T02:15:26.098Z,49.48
2022-11-13T02:17:53.189Z,49.19
2022-11-13T02:20:20.286Z,49.22
2022-11-13T02:22:47.378Z,49.20
2022-11-13T02:25:14.496Z,49.13
2022-11-13T02:27:41.551Z,49.20
2022-11-13T02:30:11.629Z,49.16
2022-11-13T02:32:41.164Z,49.24
2022-11-13T02:35:08.263Z,49.17
2022-11-13T02:37:35.337Z,49.05
2022-11-13T02:40:02.448Z,48.92
2022-11-13T02:42:29.550Z,48.85
2022-11-13T02:44:56.614Z,48.91
2022-11-13T02:47:23.682Z,48.86
2022-11-13T02:49:50.734Z,48.74
2022-11-13T02:52:17.874Z,48.84
2022-11-13T02:54:44.962Z,48.72
2022-11-13T02:57:12.039Z,48.89
2022-11-13T02:59:39.121Z,48.91
2022-11-13T03:02:06.242Z,48.76
2022-11-13T03:04:57.320Z,48.75
2022-11-13T03:07:20.456Z,48.93
2022-11-13T03:09:47.581Z,48.97
2022-11-13T03:12:14.657Z,48.82
2022-11-13T03:14:41.778Z,48.82
2022-11-13T03:17:08.838Z,48.65
2022-11-13T03:19:35.896Z,48.70
2022-11-13T03:22:02.970Z,48.57
2022-11-13T03:24:30.049Z,48.72
2022-11-13T03:26:57.159Z,48.69
2022-11-13T03:29:24.220Z,48.58
2022-11-13T03:31:51.281Z,48.63
2022-11-13T03:34:18.341Z,48.49
2022-11-13T03:36:45.403Z,48.52
2022-11-13T03:39:12.469Z,48.39
2022-11-13T03:41:39.545Z,48.29
2022-11-13T03:44:06.637Z,48.54
2022-11-13T03:46:33.705Z,48.37
2022-11-13T03:49:00.757Z,48.60
2022-11-13T03:51:27.916Z,48.43
2022-11-13T03:53:54.977Z,48.46
2022-11-13T03:56:22.094Z,48.43
2022-11-13T03:58:49.797Z,48.44
2022-11-13T04:01:17.039Z,48.55
2022-11-13T04:03:44.153Z,48.10
2022-11-13T04:06:11.294Z,48.33
2022-11-13T04:08:38.357Z,48.45
2022-11-13T04:11:05.418Z,48.28
2022-11-13T04:13:32.515Z,48.03
2022-11-13T04:15:59.590Z,48.13
2022-11-13T04:18:27.739Z,48.31
2022-11-13T04:20:55.098Z,48.30
2022-11-13T04:23:22.166Z,48.30
2022-11-13T04:25:49.232Z,47.98
2022-11-13T04:28:16.285Z,48.14
2022-11-13T04:30:43.342Z,47.99
2022-11-13T04:33:10.423Z,48.04
2022-11-13T04:35:37.532Z,48.13
2022-11-13T04:38:04.585Z,48.04
2022-11-13T04:40:31.641Z,47.85
2022-11-13T04:42:58.703Z,47.93
2022-11-13T04:45:27.612Z,47.86
2022-11-13T04:47:54.841Z,48.04
2022-11-13T04:50:21.906Z,47.72
2022-11-13T04:52:49.007Z,47.85
2022-11-13T04:55:16.072Z,47.90
2022-11-13T04:57:43.138Z,47.85
2022-11-13T05:00:10.279Z,47.74
2022-11-13T05:02:37.422Z,47.74
2022-11-13T05:05:05.357Z,47.61
2022-11-13T05:07:32.545Z,47.74
2022-11-13T05:09:59.673Z,47.72
2022-11-13T05:12:26.735Z,47.52
2022-11-13T05:14:53.792Z,47.68
2022-11-13T05:17:20.894Z,47.66
2022-11-13T05:19:47.971Z,47.69
2022-11-13T05:22:15.030Z,47.56
2022-11-13T05:24:42.125Z,47.35
2022-11-13T05:27:14.139Z,47.43
2022-11-13T05:29:44.093Z,47.69
2022-11-13T05:32:11.178Z,47.71
2022-11-13T05:34:38.239Z,47.56
2022-11-13T05:37:05.302Z,47.54
2022-11-13T05:39:32.383Z,47.46
2022-11-13T05:41:59.475Z,47.24
2022-11-13T05:44:26.537Z,47.56
2022-11-13T05:46:53.602Z,47.16
2022-11-13T05:49:20.673Z,47.26
2022-11-13T05:51:47.728Z,47.24
2022-11-13T05:54:14.786Z,47.39
2022-11-13T05:56:41.833Z,47.30
2022-11-13T05:59:08.894Z,46.93
2022-11-13T06:01:35.990Z,47.02
2022-11-13T06:04:03.131Z,47.21
2022-11-13T06:06:30.222Z,47.17
2022-11-13T06:08:57.294Z,47.33
2022-11-13T06:11:24.364Z,47.16
2022-11-13T06:13:51.423Z,46.77
2022-11-13T06:16:18.506Z,46.90
2022-11-13T06:18:45.568Z,46.94
2022-11-13T06:21:12.633Z,47.22
2022-11-13T06:23:39.745Z,46.89
2022-11-13T06:26:06.815Z,47.06
2022-11-13T06:28:34.014Z,47.20
2022-11-13T06:31:01.076Z,46.88
2022-11-13T06:33:28.174Z,47.18
2022-11-13T06:35:55.247Z,46.73
2022-11-13T06:38:22.309Z,46.74
2022-11-13T06:40:49.406Z,47.06
2022-11-13T06:43:16.471Z,46.74
2022-11-13T06:45:43.541Z,47.03
2022-11-13T06:48:10.602Z,46.80
2022-11-13T06:50:37.702Z,46.74
2022-11-13T06:53:04.777Z,46.55
2022-11-13T06:55:32.044Z,46.55
2022-11-13T06:57:59.123Z,46.70
2022-11-13T07:00:26.187Z,46.57
2022-11-13T07:02:53.268Z,46.51
2022-11-13T07:05:20.366Z,46.64
2022-11-13T07:07:47.467Z,46.82
2022-11-13T07:10:14.549Z,46.43
2022-11-13T07:12:41.714Z,46.56
2022-11-13T07:15:08.797Z,46.35
2022-11-13T07:17:35.888Z,46.24
2022-11-13T07:20:02.959Z,46.23
2022-11-13T07:22:30.658Z,46.37
2022-11-13T07:24:58.339Z,46.62
2022-11-13T07:27:25.447Z,46.47
2022-11-13T07:29:52.511Z,46.16
2022-11-13T07:32:19.618Z,46.21
2022-11-13T07:34:46.684Z,46.26
2022-11-13T07:37:13.817Z,45.93
2022-11-13T07:39:40.886Z,46.21
2022-11-13T07:42:08.002Z,46.09
2022-11-13T07:44:55.741Z,46.30
2022-11-13T07:47:22.323Z,46.08
2022-11-13T07:49:49.400Z,46.15
2022-11-13T07:52:16.468Z,46.25
2022-11-13T07:54:43.529Z,46.12
2022-11-13T07:57:10.602Z,46.11
2022-11-13T07:59:37.680Z,46.30
2022-11-13T08:02:04.777Z,46.20
2022-11-13T08:04:31.863Z,46.02
2022-11-13T08:06:58.953Z,46.05
2022-11-13T08:09:26.056Z,46.14
2022-11-13T08:11:53.114Z,46.38
2022-11-13T08:14:20.180Z,46.12
2022-11-13T08:16:47.254Z,46.05
2022-11-13T08:19:14.361Z,46.14
2022-11-13T08:21:41.442Z,46.12
2022-11-13T08:24:08.510Z,46.20
2022-11-13T08:26:35.571Z,46.23
2022-11-13T08:29:02.672Z,46.11
2022-11-13T08:31:29.802Z,46.06
2022-11-13T08:33:56.874Z,46.33
2022-11-13T08:36:25.537Z,46.37
2022-11-13T08:38:52.611Z,45.98
2022-11-13T08:41:19.669Z,46.06
2022-11-13T08:43:46.767Z,46.25
2022-11-13T08:46:13.841Z,46.34
2022-11-13T08:48:40.929Z,46.24
2022-11-13T08:51:07.994Z,46.30
2022-11-13T08:53:35.096Z,46.33
2022-11-13T08:56:02.349Z,46.32
2022-11-13T08:58:29.699Z,46.46
2022-11-13T09:00:56.907Z,46.32
2022-11-13T09:03:24.020Z,46.39
2022-11-13T09:05:51.114Z,46.30
2022-11-13T09:08:18.168Z,46.41
2022-11-13T09:10:45.246Z,46.33
2022-11-13T09:13:12.371Z,46.28
2022-11-13T09:15:39.506Z,46.17
2022-11-13T09:18:06.587Z,46.46
2022-11-13T09:20:33.663Z,46.39
2022-11-13T09:23:00.748Z,46.41
2022-11-13T09:25:30.343Z,46.55
2022-11-13T09:28:01.354Z,46.52
2022-11-13T09:30:28.436Z,46.49
2022-11-13T09:32:55.506Z,46.62
2022-11-13T09:35:33.815Z,46.53
2022-11-13T09:38:00.966Z,46.67
2022-11-13T09:40:28.093Z,46.56
2022-11-13T09:42:55.183Z,46.40
2022-11-13T09:45:22.269Z,46.46
2022-11-13T09:47:49.394Z,46.67
2022-11-13T09:50:16.487Z,46.73
2022-11-13T09:52:43.546Z,46.67
2022-11-13T09:55:10.650Z,46.72
2022-11-13T09:57:37.738Z,46.72
2022-11-13T10:00:04.902Z,46.58
2022-11-13T10:02:32.002Z,46.67
2022-11-13T10:04:59.079Z,46.79
2022-11-13T10:07:26.148Z,46.73
2022-11-13T10:09:53.238Z,46.59
2022-11-13T10:12:20.325Z,46.93
2022-11-13T10:14:47.404Z,46.74
2022-11-13T10:17:14.710Z,46.70
2022-11-13T10:19:41.775Z,46.85
2022-11-13T10:22:31.800Z,46.67
2022-11-13T10:24:55.901Z,46.77
2022-11-13T10:27:22.965Z,46.94
2022-11-13T10:29:50.033Z,46.83
2022-11-13T10:32:17.350Z,46.96
2022-11-13T10:34:44.508Z,47.21
2022-11-13T10:37:12.330Z,47.11
2022-11-13T10:39:39.408Z,47.09
2022-11-13T10:42:06.470Z,47.29
2022-11-13T10:44:33.597Z,47.24
2022-11-13T10:47:00.702Z,47.03
2022-11-13T10:49:30.765Z,47.22
2022-11-13T10:51:57.871Z,47.28
2022-11-13T10:54:25.030Z,47.25
2022-11-13T10:56:52.146Z,47.23
2022-11-13T10:59:19.233Z,47.35
2022-11-13T11:01:46.339Z,47.47
2022-11-13T11:04:13.413Z,47.19
2022-11-13T11:09:29.145Z,47.59
2022-11-13T11:12:15.018Z,47.43
2022-11-13T11:14:42.112Z,47.38
2022-11-13T11:17:09.176Z,47.32
2022-11-13T11:19:36.230Z,47.44
2022-11-13T11:22:03.315Z,47.34
2022-11-13T11:24:30.416Z,47.51
2022-11-13T11:26:57.664Z,47.64
2022-11-13T11:29:24.754Z,47.64
2022-11-13T11:31:51.833Z,47.52
2022-11-13T11:34:18.917Z,47.68
2022-11-13T11:36:46.002Z,47.69
2022-11-13T11:39:13.061Z,47.58
2022-11-13T11:41:40.219Z,47.64
2022-11-13T11:44:07.405Z,47.69
2022-11-13T11:46:34.911Z,47.68
2022-11-13T11:49:02.046Z,47.88
2022-11-13T11:51:29.270Z,47.81
2022-11-13T11:53:56.789Z,47.89
2022-11-13T11:56:24.202Z,47.89
2022-11-13T11:58:51.295Z,47.90
2022-11-13T12:01:18.391Z,47.75
2022-11-13T12:03:45.494Z,48.03
2022-11-13T12:06:12.768Z,47.89
2022-11-13T12:08:39.853Z,47.96
2022-11-13T12:11:06.927Z,47.82
2022-11-13T12:13:33.980Z,47.95
2022-11-13T12:16:01.137Z,47.92
2022-11-13T12:18:28.876Z,47.95
2022-11-13T12:20:56.202Z,47.98
2022-11-13T12:23:23.499Z,47.98
2022-11-13T12:25:50.563Z,47.87
2022-11-13T12:28:17.728Z,47.79
2022-11-13T12:30:44.994Z,47.85
2022-11-13T12:33:12.134Z,47.95
2022-11-13T12:35:39.291Z,47.87
2022-11-13T12:38:06.348Z,48.00
2022-11-13T12:40:33.418Z,48.08
2022-11-13T12:43:00.469Z,48.05
2022-11-13T12:45:27.570Z,48.34
2022-11-13T12:47:54.642Z,48.09
2022-11-13T12:50:21.725Z,48.19
2022-11-13T12:52:48.813Z,48.22
2022-11-13T12:55:15.897Z,48.26
2022-11-13T12:57:42.964Z,48.17
2022-11-13T13:00:10.168Z,48.23
2022-11-13T13:02:37.297Z,48.19
2022-11-13T13:05:04.671Z,48.18
2022-11-13T13:07:31.756Z,48.40
2022-11-13T13:09:58.988Z,48.49
2022-11-13T13:12:26.061Z,48.17
2022-11-13T13:14:53.154Z,48.47
2022-11-13T13:17:20.292Z,48.43
2022-11-13T13:19:47.346Z,48.36
2022-11-13T13:22:14.438Z,48.57
2022-11-13T13:24:41.724Z,48.46
2022-11-13T13:27:08.786Z,48.32
2022-11-13T13:29:35.947Z,48.28
2022-11-13T13:32:05.323Z,48.17
2022-11-13T13:34:35.380Z,48.59
2022-11-13T13:37:02.612Z,48.43
2022-11-13T13:39:29.780Z,48.37
2022-11-13T13:41:56.842Z,48.16
2022-11-13T13:44:23.974Z,48.35
2022-11-13T13:46:51.119Z,48.22
2022-11-13T13:49:18.261Z,48.13
2022-11-13T13:51:45.324Z,48.38
2022-11-13T13:54:12.424Z,48.34
2022-11-13T13:56:39.508Z,48.29
2022-11-13T13:59:07.102Z,48.44
2022-11-13T14:01:34.248Z,48.41
2022-11-13T14:04:01.402Z,48.34
2022-11-13T14:06:28.474Z,48.33
2022-11-13T14:08:55.542Z,48.39
2022-11-13T14:11:22.763Z,48.53
2022-11-13T14:13:49.844Z,48.54
2022-11-13T14:16:17.004Z,48.36
2022-11-13T14:18:44.096Z,48.39
2022-11-13T14:21:11.226Z,48.38
2022-11-13T14:23:38.445Z,48.50
2022-11-13T14:26:05.518Z,48.43
2022-11-13T14:28:32.629Z,48.43
2022-11-13T14:30:59.778Z,48.22
2022-11-13T14:33:27.271Z,48.26
2022-11-13T14:35:55.037Z,48.33
2022-11-13T14:38:22.136Z,48.25
2022-11-13T14:40:49.301Z,48.29
2022-11-13T14:43:16.384Z,48.26
2022-11-13T14:45:43.445Z,48.31
2022-11-13T14:48:10.509Z,48.39
2022-11-13T14:50:37.817Z,48.51
2022-11-13T14:53:04.914Z,48.43
2022-11-13T14:55:32.091Z,48.46
2022-11-13T14:57:59.149Z,48.39
2022-11-13T15:00:26.240Z,48.52
2022-11-13T15:02:53.366Z,48.48
2022-11-13T15:05:20.499Z,48.46
2022-11-13T15:07:47.689Z,48.41
2022-11-13T15:10:15.449Z,48.36
2022-11-13T15:12:42.724Z,48.50
2022-11-13T15:15:09.782Z,48.60
2022-11-13T15:17:36.859Z,48.66
2022-11-13T15:20:09.260Z,48.52
2022-11-13T15:22:36.980Z,48.54
2022-11-13T15:25:04.056Z,48.51
2022-11-13T15:27:31.454Z,48.73
2022-11-13T15:29:58.533Z,48.43
2022-11-13T15:32:28.938Z,48.52
2022-11-13T15:34:56.052Z,48.78
2022-11-13T15:37:23.130Z,48.49
2022-11-13T15:39:50.268Z,48.38
2022-11-13T15:42:17.326Z,48.69
2022-11-13T15:44:44.413Z,48.66
2022-11-13T15:47:11.486Z,48.78
2022-11-13T15:49:40.709Z,48.82
2022-11-13T15:52:14.009Z,48.76
2022-11-13T15:54:41.079Z,48.70
2022-11-13T15:57:08.202Z,48.68
2022-11-13T15:59:35.267Z,48.86
2022-11-13T16:02:03.400Z,48.88
2022-11-13T16:04:50.848Z,49.08
2022-11-13T16:07:17.637Z,49.13
2022-11-13T16:09:44.822Z,48.95
2022-11-13T16:12:11.942Z,49.21
2022-11-13T16:14:39.074Z,48.97
2022-11-13T16:17:06.268Z,49.01
2022-11-13T16:19:33.445Z,49.03
2022-11-13T16:22:00.501Z,49.17
2022-11-13T16:24:27.580Z,49.22
2022-11-13T16:26:54.666Z,49.13
2022-11-13T16:29:21.805Z,49.25
2022-11-13T16:31:48.939Z,49.19
2022-11-13T16:34:16.031Z,49.24
2022-11-13T16:36:43.202Z,49.11
2022-11-13T16:39:10.418Z,49.27
2022-11-13T16:41:37.489Z,49.27
2022-11-13T16:44:04.550Z,49.19
2022-11-13T16:46:31.690Z,49.36
2022-11-13T16:48:58.757Z,49.32
2022-11-13T16:51:25.831Z,49.36
2022-11-13T16:53:52.945Z,49.41
2022-11-13T16:56:20.112Z,49.34
2022-11-13T16:58:47.179Z,49.33
2022-11-13T17:01:14.418Z,49.26
2022-11-13T17:03:42.362Z,49.54
2022-11-13T17:06:09.439Z,49.40
2022-11-13T17:08:36.489Z,49.58
2022-11-13T17:11:03.581Z,49.31
2022-11-13T17:13:31.598Z,49.47
2022-11-13T17:15:58.982Z,49.41
2022-11-13T17:18:26.031Z,49.41
2022-11-13T17:20:53.126Z,49.44
2022-11-13T17:23:20.191Z,49.58
2022-11-13T17:25:47.893Z,49.46
2022-11-13T17:28:16.469Z,49.39
2022-11-13T17:30:43.579Z,49.43
2022-11-13T17:33:10.665Z,49.34
2022-11-13T17:35:37.739Z,49.40
2022-11-13T17:38:04.926Z,49.32
2022-11-13T17:40:31.998Z,49.36
2022-11-13T17:42:59.091Z,49.31
2022-11-13T17:45:26.164Z,49.33
2022-11-13T17:47:53.262Z,49.39
2022-11-13T17:50:20.402Z,49.24
2022-11-13T17:52:47.487Z,49.33
2022-11-13T17:55:14.742Z,49.31
2022-11-13T17:57:41.950Z,49.33
2022-11-13T18:00:09.575Z,49.33
2022-11-13T18:02:36.689Z,49.38
2022-11-13T18:05:04.658Z,49.40
2022-11-13T18:07:31.803Z,49.53
2022-11-13T18:09:58.912Z,49.42
2022-11-13T18:12:25.973Z,49.44
2022-11-13T18:14:53.040Z,49.25
2022-11-13T18:17:20.209Z,49.30
2022-11-13T18:19:47.302Z,49.11
2022-11-13T18:22:14.375Z,49.28
2022-11-13T18:24:41.541Z,49.29
2022-11-13T18:27:08.650Z,49.08
2022-11-13T18:29:35.718Z,49.21
2022-11-13T18:32:02.837Z,49.13
2022-11-13T18:34:30.063Z,49.22
2022-11-13T18:36:57.591Z,49.20
2022-11-13T18:39:24.659Z,49.26
2022-11-13T18:41:51.749Z,49.28
2022-11-13T18:44:18.809Z,48.95
2022-11-13T18:46:45.869Z,49.21
2022-11-13T18:49:12.987Z,49.12
2022-11-13T18:51:40.089Z,49.30
2022-11-13T18:54:11.519Z,49.10
2022-11-13T18:56:40.656Z,48.91
2022-11-13T18:59:07.874Z,49.05
2022-11-13T19:01:36.467Z,49.05
2022-11-13T19:06:52.118Z,48.98
2022-11-13T19:09:19.223Z,49.03
2022-11-13T19:11:46.303Z,49.05
2022-11-13T19:14:13.369Z,49.04
2022-11-13T19:16:40.425Z,49.06
2022-11-13T19:19:07.976Z,49.13
2022-11-13T19:21:35.138Z,49.09
2022-11-13T19:24:02.568Z,48.92
2022-11-13T19:26:29.664Z,49.05
2022-11-13T19:28:56.801Z,48.96
2022-11-13T19:31:24.011Z,49.03
2022-11-13T19:33:53.811Z,48.81
2022-11-13T19:36:21.694Z,48.87
2022-11-13T19:38:48.808Z,48.90
2022-11-13T19:41:15.980Z,48.95
2022-11-13T19:43:44.922Z,49.01
2022-11-13T19:46:12.063Z,48.91
2022-11-13T19:48:39.301Z,49.04
2022-11-13T19:51:06.541Z,48.85
2022-11-13T19:53:36.803Z,48.78
2022-11-13T19:56:03.940Z,48.97
2022-11-13T19:58:31.398Z,48.87
2022-11-13T20:01:00.970Z,48.84
2022-11-13T20:03:28.103Z,48.87
2022-11-13T20:05:55.318Z,48.85
2022-11-13T20:08:26.843Z,48.83
2022-11-13T20:10:55.204Z,48.68
2022-11-13T20:13:22.391Z,48.82
2022-11-13T20:15:52.170Z,48.65
2022-11-13T20:18:19.263Z,48.80
2022-11-13T20:20:49.202Z,48.76
2022-11-13T20:23:20.387Z,48.50
2022-11-13T20:25:47.463Z,48.66
2022-11-13T20:28:14.539Z,48.70
2022-11-13T20:30:41.601Z,48.55
2022-11-13T20:33:08.663Z,48.80
2022-11-13T20:35:35.749Z,48.62
2022-11-13T20:38:02.805Z,48.67
2022-11-13T20:40:29.869Z,48.45
2022-11-13T20:42:57.010Z,48.61
2022-11-13T20:45:24.074Z,48.55
2022-11-13T20:47:51.139Z,48.42
2022-11-13T20:50:18.217Z,48.51
2022-11-13T20:52:45.295Z,48.33
2022-11-13T20:55:12.354Z,48.45
2022-11-13T20:57:41.027Z,48.63
2022-11-13T21:00:08.301Z,48.53
2022-11-13T21:02:35.407Z,48.50
2022-11-13T21:05:02.486Z,48.52
2022-11-13T21:07:29.690Z,48.47
2022-11-13T21:09:57.063Z,48.40
2022-11-13T21:12:24.143Z,48.50
2022-11-13T21:14:52.049Z,48.48
2022-11-13T21:17:19.147Z,48.39
2022-11-13T21:19:46.211Z,48.37
2022-11-13T21:22:13.358Z,48.42
2022-11-13T21:24:40.458Z,48.48
2022-11-13T21:27:07.548Z,48.42
2022-11-13T21:29:34.634Z,48.43
2022-11-13T21:32:01.693Z,48.48
2022-11-13T21:34:28.772Z,48.41
2022-11-13T21:36:55.863Z,48.31
2022-11-13T21:39:22.925Z,48.41
2022-11-13T21:41:49.997Z,48.34
2022-11-13T21:44:17.058Z,48.25
2022-11-13T21:46:45.738Z,48.20
2022-11-13T21:49:13.181Z,48.45
2022-11-13T21:51:40.330Z,48.31
2022-11-13T21:54:07.393Z,48.38
2022-11-13T21:56:34.458Z,48.35
2022-11-13T21:59:01.598Z,48.30
2022-11-13T22:01:32.381Z,47.97
2022-11-13T22:04:05.486Z,48.17
2022-11-13T22:06:32.620Z,48.05
2022-11-13T22:08:59.729Z,48.48
2022-11-13T22:11:26.838Z,48.32
2022-11-13T22:13:53.921Z,48.24
2022-11-13T22:16:21.029Z,48.04
2022-11-13T22:18:48.117Z,48.14
2022-11-13T22:21:15.215Z,48.07
2022-11-13T22:23:42.346Z,48.27
2022-11-13T22:26:09.660Z,48.20
2022-11-13T22:28:36.723Z,48.08
2022-11-13T22:31:03.820Z,48.09
2022-11-13T22:33:30.901Z,48.08
2022-11-13T22:35:57.981Z,48.23
2022-11-13T22:38:25.073Z,48.02
2022-11-13T22:40:52.146Z,48.01
2022-11-13T22:43:19.205Z,48.10
2022-11-13T22:45:46.265Z,48.12
2022-11-13T22:48:13.337Z,48.18
2022-11-13T22:50:40.398Z,47.98
2022-11-13T22:53:07.518Z,47.83
2022-11-13T22:55:34.623Z,47.85
2022-11-13T22:58:01.687Z,47.63
2022-11-13T23:00:28.782Z,47.62
2022-11-13T23:02:55.849Z,47.57
2022-11-13T23:05:22.997Z,47.53
2022-11-13T23:07:50.208Z,47.63
2022-11-13T23:10:17.280Z,47.46
2022-11-13T23:12:44.350Z,47.56
2022-11-13T23:15:11.409Z,47.46
2022-11-13T23:17:38.532Z,47.35
2022-11-13T23:20:05.587Z,47.44
2022-11-13T23:22:32.658Z,47.43
2022-11-13T23:24:59.797Z,47.45
2022-11-13T23:27:26.928Z,47.31
2022-11-13T23:29:54.050Z,47.33
2022-11-13T23:32:21.127Z,47.34
2022-11-13T23:35:03.347Z,47.17
2022-11-13T23:37:30.426Z,47.21
2022-11-13T23:39:57.524Z,47.15
2022-11-13T23:42:39.649Z,47.11
2022-11-13T23:45:11.643Z,47.20
2022-11-13T23:47:38.713Z,47.08
2022-11-13T23:50:05.789Z,47.24
2022-11-13T23:52:32.869Z,47.40
2022-11-13T23:54:59.938Z,47.01
2022-11-13T23:57:27.011Z,47.07
2022-11-13T23:59:54.083Z,46.97
